createdAt,value
2022-08-30T00:00:38.639Z,50.849506
2022-08-30T00:01:38.637Z,50.849518
2022-08-30T00:02:38.795Z,50.849514
2022-08-30T00:03:38.727Z,50.849510
2022-08-30T00:04:38.623Z,50.849506
2022-08-30T00:05:38.596Z,50.849514
2022-08-30T00:06:38.581Z,50.849491
2022-08-30T00:07:38.578Z,50.849514
2022-08-30T00:08:38.574Z,50.849518
2022-08-30T00:09:38.576Z,50.849510
2022-08-30T00:10:38.584Z,50.849525
2022-08-30T00:11:38.593Z,50.849525
2022-08-30T00:12:38.598Z,50.849495
2022-08-30T00:13:38.543Z,50.849495
2022-08-30T00:14:38.561Z,50.849503
2022-08-30T00:15:38.579Z,50.849506
2022-08-30T00:16:38.578Z,50.849491
2022-08-30T00:17:38.518Z,50.849506
2022-08-30T00:18:38.494Z,50.849495
2022-08-30T00:19:38.482Z,50.849483
2022-08-30T00:20:38.487Z,50.849499
2022-08-30T00:21:38.490Z,50.849514
2022-08-30T00:22:38.486Z,50.849483
2022-08-30T00:23:38.451Z,50.849510
2022-08-30T00:24:38.451Z,50.849506
2022-08-30T00:25:38.443Z,50.849514
2022-08-30T00:26:38.430Z,50.849499
2022-08-30T00:27:38.428Z,50.849525
2022-08-30T00:28:38.438Z,50.849483
2022-08-30T00:29:38.419Z,50.849487
2022-08-30T00:30:38.425Z,50.849480
2022-08-30T00:31:38.484Z,50.849487
2022-08-30T00:32:38.372Z,50.849503
2022-08-30T00:33:38.379Z,50.849506
2022-08-30T00:34:38.359Z,50.849491
2022-08-30T00:35:38.366Z,50.849483
2022-08-30T00:36:38.372Z,50.849499
2022-08-30T00:37:38.340Z,50.849499
2022-08-30T00:38:38.354Z,50.849480
2022-08-30T00:39:38.321Z,50.849476
2022-08-30T00:40:38.393Z,50.849495
2022-08-30T00:41:38.318Z,50.849525
2022-08-30T00:43:14.298Z,50.849522
2022-08-30T00:43:39.316Z,50.849499
2022-08-30T00:44:38.289Z,50.849476
2022-08-30T00:45:38.271Z,50.849487
2022-08-30T00:46:38.380Z,50.849480
2022-08-30T00:47:38.266Z,50.849518
2022-08-30T00:48:38.281Z,50.849506
2022-08-30T00:49:38.240Z,50.849503
2022-08-30T00:50:38.232Z,50.849480
2022-08-30T00:51:38.255Z,50.849495
2022-08-30T00:52:38.231Z,50.849487
2022-08-30T00:53:38.213Z,50.849491
2022-08-30T00:54:38.222Z,50.849487
2022-08-30T00:55:39.054Z,50.849491
2022-08-30T00:56:38.186Z,50.849483
2022-08-30T00:57:38.201Z,50.849514
2022-08-30T00:58:38.179Z,50.849533
2022-08-30T00:59:38.176Z,50.849514
2022-08-30T01:00:38.157Z,50.849487
2022-08-30T01:01:38.242Z,50.849510
2022-08-30T01:02:38.240Z,50.849514
2022-08-30T01:03:38.222Z,50.849545
2022-08-30T01:04:38.132Z,50.849506
2022-08-30T01:05:38.129Z,50.849525
2022-08-30T01:06:38.116Z,50.849533
2022-08-30T01:07:38.108Z,50.849548
2022-08-30T01:08:38.125Z,50.849541
2022-08-30T01:09:38.123Z,50.849514
2022-08-30T01:10:38.094Z,50.849506
2022-08-30T01:11:38.075Z,50.849510
2022-08-30T01:12:38.117Z,50.849510
2022-08-30T01:13:38.083Z,50.849483
2022-08-30T01:14:38.050Z,50.849495
2022-08-30T01:15:38.056Z,50.849506
2022-08-30T01:16:38.032Z,50.849518
2022-08-30T01:17:38.031Z,50.849468
2022-08-30T01:18:38.022Z,50.849476
2022-08-30T01:19:38.034Z,50.849487
2022-08-30T01:20:38.315Z,50.849480
2022-08-30T01:21:37.996Z,50.849518
2022-08-30T01:22:37.989Z,50.849525
2022-08-30T01:23:38.352Z,50.849510
2022-08-30T01:24:37.971Z,50.849518
2022-08-30T01:25:37.990Z,50.849506
2022-08-30T01:26:37.979Z,50.849518
2022-08-30T01:27:37.948Z,50.849525
2022-08-30T01:28:37.973Z,50.849457
2022-08-30T01:29:37.933Z,50.849487
2022-08-30T01:30:38.017Z,50.849476
2022-08-30T01:31:37.912Z,50.849518
2022-08-30T01:32:37.924Z,50.849529
2022-08-30T01:33:37.895Z,50.849426
2022-08-30T01:34:37.882Z,50.849487
2022-08-30T01:35:37.873Z,50.849491
2022-08-30T01:36:38.007Z,50.849499
2022-08-30T01:37:38.915Z,50.849518
2022-08-30T01:38:37.854Z,50.849548
2022-08-30T01:39:37.860Z,50.849491
2022-08-30T01:40:37.872Z,50.849491
2022-08-30T01:41:37.846Z,50.849514
2022-08-30T01:42:37.825Z,50.849545
2022-08-30T01:43:37.812Z,50.849453
2022-08-30T01:44:37.812Z,50.849495
2022-08-30T01:45:37.811Z,50.849480
2022-08-30T01:46:37.778Z,50.849495
2022-08-30T01:47:37.926Z,50.849506
2022-08-30T01:48:37.764Z,50.849491
2022-08-30T01:49:37.761Z,50.849491
2022-08-30T01:50:37.754Z,50.849499
2022-08-30T01:51:37.750Z,50.849514
2022-08-30T01:52:37.766Z,50.849529
2022-08-30T01:53:37.754Z,50.849529
2022-08-30T01:54:38.142Z,50.849499
2022-08-30T01:55:37.716Z,50.849480
2022-08-30T01:56:37.705Z,50.849506
2022-08-30T01:57:37.697Z,50.849499
2022-08-30T01:58:37.718Z,50.849537
2022-08-30T01:59:37.678Z,50.849537
2022-08-30T02:00:37.664Z,50.849491
2022-08-30T02:01:37.694Z,50.849514
2022-08-30T02:02:37.651Z,50.849514
2022-08-30T02:03:37.690Z,50.849503
2022-08-30T02:04:37.670Z,50.849514
2022-08-30T02:05:37.636Z,50.849525
2022-08-30T02:06:37.654Z,50.849522
2022-08-30T02:07:38.264Z,50.849506
2022-08-30T02:08:37.615Z,50.849510
2022-08-30T02:09:37.591Z,50.849518
2022-08-30T02:10:37.597Z,50.849510
2022-08-30T02:11:37.583Z,50.849522
2022-08-30T02:12:37.614Z,50.849514
2022-08-30T02:13:37.567Z,50.849522
2022-08-30T02:14:37.599Z,50.849529
2022-08-30T02:15:41.451Z,50.849518
2022-08-30T02:16:37.578Z,50.849514
2022-08-30T02:17:37.537Z,50.849522
2022-08-30T02:18:37.604Z,50.849503
2022-08-30T02:19:37.520Z,50.849510
2022-08-30T02:20:37.525Z,50.849522
2022-08-30T02:21:37.508Z,50.849506
2022-08-30T02:22:37.498Z,50.849510
2022-08-30T02:23:37.485Z,50.849514
2022-08-30T02:24:37.515Z,50.849525
2022-08-30T02:25:37.498Z,50.849522
2022-08-30T02:26:37.462Z,50.849518
2022-08-30T02:27:37.452Z,50.849525
2022-08-30T02:28:42.875Z,50.849533
2022-08-30T02:29:38.433Z,50.849514
2022-08-30T02:30:37.514Z,50.849495
2022-08-30T02:31:37.448Z,50.849480
2022-08-30T02:32:37.446Z,50.849495
2022-08-30T02:33:37.414Z,50.849499
2022-08-30T02:34:37.432Z,50.849518
2022-08-30T02:35:37.393Z,50.849499
2022-08-30T02:36:37.383Z,50.849495
2022-08-30T02:37:37.383Z,50.849525
2022-08-30T02:38:37.393Z,50.849522
2022-08-30T02:39:37.359Z,50.849499
2022-08-30T02:40:37.403Z,50.849499
2022-08-30T02:41:37.339Z,50.849514
2022-08-30T02:42:37.351Z,50.849506
2022-08-30T02:43:37.327Z,50.849514
2022-08-30T02:44:37.334Z,50.849514
2022-08-30T02:45:37.328Z,50.849499
2022-08-30T02:46:37.300Z,50.849499
2022-08-30T02:47:37.305Z,50.849487
2022-08-30T02:48:37.295Z,50.849499
2022-08-30T02:49:37.304Z,50.849514
2022-08-30T02:50:37.281Z,50.849510
2022-08-30T02:51:37.283Z,50.849518
2022-08-30T02:52:37.274Z,50.849483
2022-08-30T02:53:37.255Z,50.849518
2022-08-30T02:54:37.239Z,50.849560
2022-08-30T02:55:37.833Z,50.849495
2022-08-30T02:56:37.222Z,50.849552
2022-08-30T02:57:37.216Z,50.849541
2022-08-30T02:58:37.213Z,50.849548
2022-08-30T02:59:37.195Z,50.849552
2022-08-30T03:00:37.188Z,50.849548
2022-08-30T03:01:37.306Z,50.849499
2022-08-30T03:02:37.174Z,50.849499
2022-08-30T03:03:37.252Z,50.849522
2022-08-30T03:04:37.163Z,50.849525
2022-08-30T03:05:39.708Z,50.849522
2022-08-30T03:06:37.188Z,50.849510
2022-08-30T03:07:37.162Z,50.849537
2022-08-30T03:08:37.143Z,50.849541
2022-08-30T03:09:37.143Z,50.849548
2022-08-30T03:10:37.116Z,50.849529
2022-08-30T03:11:37.109Z,50.849541
2022-08-30T03:12:37.124Z,50.849533
2022-08-30T03:13:37.114Z,50.849529
2022-08-30T03:14:37.076Z,50.849533
2022-08-30T03:15:37.075Z,50.849533
2022-08-30T03:16:37.098Z,50.849541
2022-08-30T03:17:37.061Z,50.849525
2022-08-30T03:18:37.062Z,50.849522
2022-08-30T03:19:37.073Z,50.849525
2022-08-30T03:20:37.040Z,50.849525
2022-08-30T03:21:37.059Z,50.849529
2022-08-30T03:22:37.025Z,50.849548
2022-08-30T03:23:37.045Z,50.849552
2022-08-30T03:24:37.007Z,50.849556
2022-08-30T03:25:37.010Z,50.849548
2022-08-30T03:26:36.996Z,50.849548
2022-08-30T03:27:37.001Z,50.849541
2022-08-30T03:28:36.985Z,50.849514
2022-08-30T03:29:36.965Z,50.849529
2022-08-30T03:30:36.959Z,50.849529
2022-08-30T03:31:37.704Z,50.849525
2022-08-30T03:32:36.954Z,50.849525
2022-08-30T03:33:36.975Z,50.849514
2022-08-30T03:34:37.004Z,50.849541
2022-08-30T03:35:36.923Z,50.849510
2022-08-30T03:36:36.914Z,50.849525
2022-08-30T03:37:36.905Z,50.849529
2022-08-30T03:38:36.922Z,50.849529
2022-08-30T03:39:36.888Z,50.849522
2022-08-30T03:40:36.968Z,50.849518
2022-08-30T03:41:36.874Z,50.849518
2022-08-30T03:42:36.865Z,50.849541
2022-08-30T03:43:36.884Z,50.849545
2022-08-30T03:44:36.869Z,50.849514
2022-08-30T03:45:36.918Z,50.849506
2022-08-30T03:46:37.661Z,50.849510
2022-08-30T03:47:36.829Z,50.849503
2022-08-30T03:48:36.825Z,50.849545
2022-08-30T03:49:36.820Z,50.849491
2022-08-30T03:50:36.814Z,50.849510
2022-08-30T03:51:36.815Z,50.849506
2022-08-30T03:52:36.790Z,50.849518
2022-08-30T03:53:36.789Z,50.849514
2022-08-30T03:54:36.770Z,50.849503
2022-08-30T03:55:36.759Z,50.849506
2022-08-30T03:56:36.771Z,50.849503
2022-08-30T03:57:36.774Z,50.849514
2022-08-30T03:58:36.763Z,50.849503
2022-08-30T03:59:36.750Z,50.849506
2022-08-30T04:00:36.815Z,50.849506
2022-08-30T04:01:36.745Z,50.849522
2022-08-30T04:02:36.795Z,50.849522
2022-08-30T04:03:36.708Z,50.849487
2022-08-30T04:04:36.694Z,50.849442
2022-08-30T04:05:36.762Z,50.849487
2022-08-30T04:06:36.701Z,50.849525
2022-08-30T04:07:36.667Z,50.849529
2022-08-30T04:08:36.657Z,50.849510
2022-08-30T04:09:36.654Z,50.849487
2022-08-30T04:10:36.639Z,50.849495
2022-08-30T04:11:36.665Z,50.849510
2022-08-30T04:12:38.492Z,50.849529
2022-08-30T04:13:36.621Z,50.849495
2022-08-30T04:14:36.609Z,50.849499
2022-08-30T04:15:36.617Z,50.849506
2022-08-30T04:16:36.641Z,50.849529
2022-08-30T04:17:36.607Z,50.849522
2022-08-30T04:18:36.596Z,50.849464
2022-08-30T04:19:36.576Z,50.849476
2022-08-30T04:20:36.578Z,50.849480
2022-08-30T04:21:42.706Z,50.849480
2022-08-30T04:22:37.580Z,50.849476
2022-08-30T04:23:36.534Z,50.849476
2022-08-30T04:24:36.518Z,50.849472
2022-08-30T04:25:36.517Z,50.849468
2022-08-30T04:26:36.508Z,50.849503
2022-08-30T04:27:36.519Z,50.849503
2022-08-30T04:28:36.541Z,50.849491
2022-08-30T04:29:36.518Z,50.849480
2022-08-30T04:30:36.494Z,50.849487
2022-08-30T04:31:36.550Z,50.849499
2022-08-30T04:32:36.473Z,50.849483
2022-08-30T04:33:36.467Z,50.849487
2022-08-30T04:34:36.474Z,50.849480
2022-08-30T04:35:36.470Z,50.849499
2022-08-30T04:36:36.444Z,50.849491
2022-08-30T04:37:36.429Z,50.849503
2022-08-30T04:38:36.421Z,50.849506
2022-08-30T04:39:36.442Z,50.849476
2022-08-30T04:40:36.492Z,50.849522
2022-08-30T04:41:36.396Z,50.849506
2022-08-30T04:42:36.393Z,50.849499
2022-08-30T04:43:36.394Z,50.849483
2022-08-30T04:44:36.368Z,50.849514
2022-08-30T04:45:36.467Z,50.849487
2022-08-30T04:46:36.363Z,50.849522
2022-08-30T04:47:37.375Z,50.849541
2022-08-30T04:48:36.340Z,50.849522
2022-08-30T04:49:36.333Z,50.849506
2022-08-30T04:50:36.330Z,50.849487
2022-08-30T04:51:36.318Z,50.849503
2022-08-30T04:52:36.312Z,50.849480
2022-08-30T04:53:36.317Z,50.849506
2022-08-30T04:54:36.345Z,50.849468
2022-08-30T04:55:36.296Z,50.849491
2022-08-30T04:56:36.282Z,50.849518
2022-08-30T04:57:36.289Z,50.849499
2022-08-30T04:58:36.264Z,50.849529
2022-08-30T04:59:36.280Z,50.849541
2022-08-30T05:00:36.300Z,50.849503
2022-08-30T05:01:45.678Z,50.849510
2022-08-30T05:02:37.396Z,50.849510
2022-08-30T05:03:36.223Z,50.849503
2022-08-30T05:04:36.237Z,50.849514
2022-08-30T05:05:36.210Z,50.849537
2022-08-30T05:06:36.197Z,50.849495
2022-08-30T05:07:36.219Z,50.849495
2022-08-30T05:08:36.185Z,50.849491
2022-08-30T05:09:36.204Z,50.849487
2022-08-30T05:10:36.167Z,50.849495
2022-08-30T05:11:36.179Z,50.849487
2022-08-30T05:12:36.153Z,50.849487
2022-08-30T05:13:36.995Z,50.849491
2022-08-30T05:14:36.147Z,50.849499
2022-08-30T05:15:36.142Z,50.849506
2022-08-30T05:16:36.212Z,50.849495
2022-08-30T05:17:36.123Z,50.849491
2022-08-30T05:18:36.117Z,50.849487
2022-08-30T05:19:36.134Z,50.849491
2022-08-30T05:20:36.094Z,50.849480
2022-08-30T05:21:36.077Z,50.849506
2022-08-30T05:22:36.077Z,50.849495
2022-08-30T05:23:36.101Z,50.849476
2022-08-30T05:24:36.059Z,50.849472
2022-08-30T05:25:36.076Z,50.849495
2022-08-30T05:26:36.083Z,50.849483
2022-08-30T05:27:37.204Z,50.849480
2022-08-30T05:28:36.036Z,50.849480
2022-08-30T05:29:36.025Z,50.849476
2022-08-30T05:30:36.051Z,50.849464
2022-08-30T05:31:36.077Z,50.849472
2022-08-30T05:32:35.996Z,50.849491
2022-08-30T05:33:38.900Z,50.849499
2022-08-30T05:34:35.978Z,50.849495
2022-08-30T05:35:35.969Z,50.849487
2022-08-30T05:36:35.987Z,50.849472
2022-08-30T05:37:35.991Z,50.849480
2022-08-30T05:38:35.957Z,50.849476
2022-08-30T05:39:45.145Z,50.849487
2022-08-30T05:40:37.028Z,50.849491
2022-08-30T05:41:36.881Z,50.849487
2022-08-30T05:42:35.943Z,50.849491
2022-08-30T05:43:35.914Z,50.849487
2022-08-30T05:44:35.926Z,50.849483
2022-08-30T05:45:35.894Z,50.849491
2022-08-30T05:46:35.896Z,50.849503
2022-08-30T05:47:35.931Z,50.849518
2022-08-30T05:48:35.882Z,50.849480
2022-08-30T05:49:35.866Z,50.849468
2022-08-30T05:50:39.438Z,50.849476
2022-08-30T05:51:35.869Z,50.849491
2022-08-30T05:52:36.871Z,50.849480
2022-08-30T05:53:35.861Z,50.849491
2022-08-30T05:54:35.844Z,50.849487
2022-08-30T05:55:35.820Z,50.849491
2022-08-30T05:56:35.816Z,50.849483
2022-08-30T05:57:35.799Z,50.849480
2022-08-30T05:58:35.795Z,50.849483
2022-08-30T05:59:35.819Z,50.849499
2022-08-30T06:00:35.775Z,50.849506
2022-08-30T06:01:35.833Z,50.849499
2022-08-30T06:02:35.790Z,50.849487
2022-08-30T06:03:35.751Z,50.849506
2022-08-30T06:04:35.746Z,50.849506
2022-08-30T06:05:35.791Z,50.849510
2022-08-30T06:06:35.726Z,50.849514
2022-08-30T06:07:35.720Z,50.849514
2022-08-30T06:08:35.715Z,50.849510
2022-08-30T06:09:35.705Z,50.849503
2022-08-30T06:10:35.700Z,50.849525
2022-08-30T06:11:35.718Z,50.849533
2022-08-30T06:12:35.696Z,50.849514
2022-08-30T06:13:35.665Z,50.849518
2022-08-30T06:14:35.658Z,50.849510
2022-08-30T06:15:35.649Z,50.849506
2022-08-30T06:16:35.747Z,50.849525
2022-08-30T06:17:35.737Z,50.849529
2022-08-30T06:18:35.627Z,50.849522
2022-08-30T06:19:35.627Z,50.849522
2022-08-30T06:20:35.617Z,50.849518
2022-08-30T06:21:35.612Z,50.849522
2022-08-30T06:22:35.600Z,50.849506
2022-08-30T06:23:35.615Z,50.849514
2022-08-30T06:24:54.022Z,50.849522
2022-08-30T06:25:42.174Z,50.849525
2022-08-30T06:26:36.574Z,50.849522
2022-08-30T06:27:35.611Z,50.849525
2022-08-30T06:28:35.551Z,50.849518
2022-08-30T06:29:35.561Z,50.849518
2022-08-30T06:30:35.537Z,50.849522
2022-08-30T06:31:35.545Z,50.849537
2022-08-30T06:32:35.530Z,50.849525
2022-08-30T06:33:35.500Z,50.849529
2022-08-30T06:34:35.845Z,50.849518
2022-08-30T06:35:46.814Z,50.849506
2022-08-30T06:36:36.478Z,50.849510
2022-08-30T06:37:35.465Z,50.849514
2022-08-30T06:38:35.461Z,50.849518
2022-08-30T06:39:35.509Z,50.849506
2022-08-30T06:40:35.521Z,50.849514
2022-08-30T06:41:35.429Z,50.849506
2022-08-30T06:42:35.422Z,50.849506
2022-08-30T06:43:35.410Z,50.849499
2022-08-30T06:44:35.408Z,50.849506
2022-08-30T06:45:35.411Z,50.849506
2022-08-30T06:46:35.609Z,50.849499
2022-08-30T06:47:35.383Z,50.849518
2022-08-30T06:48:35.375Z,50.849545
2022-08-30T06:49:35.374Z,50.849533
2022-08-30T06:50:35.359Z,50.849537
2022-08-30T06:51:35.354Z,50.849529
2022-08-30T06:52:35.371Z,50.849510
2022-08-30T06:53:35.337Z,50.849525
2022-08-30T06:54:35.326Z,50.849529
2022-08-30T06:55:35.317Z,50.849537
2022-08-30T06:56:36.177Z,50.849533
2022-08-30T06:57:35.321Z,50.849545
2022-08-30T06:58:35.314Z,50.849525
2022-08-30T07:02:03.985Z,50.849552
2022-08-30T07:03:03.642Z,50.849545
2022-08-30T07:04:04.144Z,50.849556
2022-08-30T07:05:02.225Z,50.849564
2022-08-30T07:06:02.219Z,50.849552
2022-08-30T07:07:02.226Z,50.849533
2022-08-30T07:08:02.206Z,50.849522
2022-08-30T07:09:02.198Z,50.849518
2022-08-30T07:10:02.233Z,50.849541
2022-08-30T07:11:02.176Z,50.849545
2022-08-30T07:12:02.228Z,50.849545
2022-08-30T07:13:02.170Z,50.849529
2022-08-30T07:14:02.157Z,50.849506
2022-08-30T07:15:02.146Z,50.849556
2022-08-30T07:16:02.223Z,50.849564
2022-08-30T07:17:02.149Z,50.849564
2022-08-30T07:18:02.118Z,50.849567
2022-08-30T07:19:02.137Z,50.849567
2022-08-30T07:20:02.102Z,50.849552
2022-08-30T07:21:02.090Z,50.849564
2022-08-30T07:22:02.095Z,50.849594
2022-08-30T07:23:02.080Z,50.849583
2022-08-30T07:24:02.074Z,50.849590
2022-08-30T07:25:02.092Z,50.849590
2022-08-30T07:26:02.067Z,50.849586
2022-08-30T07:27:02.052Z,50.849583
2022-08-30T07:28:02.041Z,50.849586
2022-08-30T07:29:02.032Z,50.849583
2022-08-30T07:30:02.074Z,50.849567
2022-08-30T07:31:02.074Z,50.849579
2022-08-30T07:32:02.002Z,50.849613
2022-08-30T07:33:02.005Z,50.849586
2022-08-30T07:34:01.979Z,50.849606
2022-08-30T07:35:01.982Z,50.849586
2022-08-30T07:36:01.968Z,50.849579
2022-08-30T07:37:01.988Z,50.849590
2022-08-30T07:38:01.955Z,50.849598
2022-08-30T07:39:01.946Z,50.849564
2022-08-30T07:40:01.984Z,50.849579
2022-08-30T07:41:01.922Z,50.849575
2022-08-30T07:42:01.937Z,50.849590
2022-08-30T07:43:02.011Z,50.849590
2022-08-30T07:44:01.897Z,50.849598
2022-08-30T07:45:01.900Z,50.849586
2022-08-30T07:46:01.950Z,50.849579
2022-08-30T07:47:01.893Z,50.849594
2022-08-30T07:48:01.887Z,50.849594
2022-08-30T07:49:01.921Z,50.849579
2022-08-30T07:50:01.854Z,50.849560
2022-08-30T07:51:05.188Z,50.849579
2022-08-30T07:52:01.832Z,50.849617
2022-08-30T07:53:01.885Z,50.849606
2022-08-30T07:54:01.830Z,50.849579
2022-08-30T07:55:01.804Z,50.849579
2022-08-30T07:56:01.797Z,50.849583
2022-08-30T07:57:01.790Z,50.849583
2022-08-30T07:59:01.780Z,50.849594
2022-08-30T08:00:01.784Z,50.849579
2022-08-30T08:01:01.750Z,50.849571
2022-08-30T08:02:01.821Z,50.849583
2022-08-30T08:03:01.812Z,50.849575
2022-08-30T08:04:01.766Z,50.849571
2022-08-30T08:05:01.736Z,50.849575
2022-08-30T08:06:01.729Z,50.849598
2022-08-30T08:07:01.749Z,50.849575
2022-08-30T08:08:01.711Z,50.849579
2022-08-30T08:09:01.709Z,50.849590
2022-08-30T08:10:01.711Z,50.849571
2022-08-30T08:11:01.680Z,50.849586
2022-08-30T08:12:01.725Z,50.849598
2022-08-30T08:13:01.672Z,50.849590
2022-08-30T08:14:01.685Z,50.849609
2022-08-30T08:15:04.162Z,50.849594
2022-08-30T08:16:02.729Z,50.849571
2022-08-30T08:17:01.620Z,50.849602
2022-08-30T08:18:01.639Z,50.849579
2022-08-30T08:19:01.619Z,50.849571
2022-08-30T08:20:01.603Z,50.849567
2022-08-30T08:21:01.594Z,50.849579
2022-08-30T08:22:19.944Z,50.849583
2022-08-30T08:23:02.617Z,50.849583
2022-08-30T08:24:01.568Z,50.849583
2022-08-30T08:25:01.565Z,50.849583
2022-08-30T08:26:01.573Z,50.849590
2022-08-30T08:27:01.544Z,50.849598
2022-08-30T08:28:01.547Z,50.849598
2022-08-30T08:29:01.544Z,50.849579
2022-08-30T08:30:01.517Z,50.849564
2022-08-30T08:31:01.535Z,50.849579
2022-08-30T08:32:01.496Z,50.849571
2022-08-30T08:33:01.565Z,50.849567
2022-08-30T08:35:01.472Z,50.849571
2022-08-30T08:36:01.803Z,50.849583
2022-08-30T08:37:01.462Z,50.849583
2022-08-30T08:38:01.448Z,50.849571
2022-08-30T08:39:01.448Z,50.849602
2022-08-30T08:40:01.491Z,50.849606
2022-08-30T08:41:01.428Z,50.849617
2022-08-30T08:42:01.411Z,50.849586
2022-08-30T08:43:01.409Z,50.849586
2022-08-30T08:44:01.394Z,50.849579
2022-08-30T08:45:01.394Z,50.849579
2022-08-30T08:46:01.431Z,50.849575
2022-08-30T08:47:01.386Z,50.849564
2022-08-30T08:48:01.419Z,50.849556
2022-08-30T08:49:01.367Z,50.849560
2022-08-30T08:50:01.370Z,50.849548
2022-08-30T08:51:02.789Z,50.849556
2022-08-30T08:52:01.360Z,50.849552
2022-08-30T08:53:01.328Z,50.849537
2022-08-30T08:54:01.339Z,50.849560
2022-08-30T08:55:01.318Z,50.849567
2022-08-30T08:56:01.316Z,50.849548
2022-08-30T08:57:01.330Z,50.849529
2022-08-30T08:58:01.290Z,50.849518
2022-08-30T08:59:01.290Z,50.849548
2022-08-30T09:00:01.277Z,50.849560
2022-08-30T09:01:01.273Z,50.849495
2022-08-30T09:02:01.343Z,50.849541
2022-08-30T09:03:01.259Z,50.849567
2022-08-30T09:04:01.241Z,50.849590
2022-08-30T09:05:01.267Z,50.849583
2022-08-30T09:06:01.217Z,50.849560
2022-08-30T09:07:01.219Z,50.849571
2022-08-30T09:08:01.223Z,50.849567
2022-08-30T09:09:01.201Z,50.849548
2022-08-30T09:10:01.186Z,50.849564
2022-08-30T09:11:01.182Z,50.849548
2022-08-30T09:12:01.177Z,50.849583
2022-08-30T09:13:02.291Z,50.849583
2022-08-30T09:14:01.161Z,50.849556
2022-08-30T09:15:01.154Z,50.849560
2022-08-30T09:16:01.191Z,50.849586
2022-08-30T09:17:02.649Z,50.849571
2022-08-30T09:18:01.130Z,50.849556
2022-08-30T09:19:01.156Z,50.849545
2022-08-30T09:20:01.121Z,50.849529
2022-08-30T09:21:01.118Z,50.849583
2022-08-30T09:22:01.099Z,50.849545
2022-08-30T09:23:01.091Z,50.849571
2022-08-30T09:24:01.090Z,50.849560
2022-08-30T09:25:01.108Z,50.849548
2022-08-30T09:26:01.078Z,50.849537
2022-08-30T09:27:01.072Z,50.849564
2022-08-30T09:28:01.071Z,50.849533
2022-08-30T09:29:01.117Z,50.849541
2022-08-30T09:30:01.064Z,50.849548
2022-08-30T09:31:01.101Z,50.849548
2022-08-30T09:32:22.454Z,50.849545
2022-08-30T09:33:02.019Z,50.849564
2022-08-30T09:34:01.035Z,50.849552
2022-08-30T09:35:01.027Z,50.849537
2022-08-30T09:36:00.994Z,50.849541
2022-08-30T09:37:00.988Z,50.849560
2022-08-30T09:38:00.972Z,50.849537
2022-08-30T09:39:00.970Z,50.849533
2022-08-30T09:40:01.076Z,50.849537
2022-08-30T09:41:00.965Z,50.849529
2022-08-30T09:42:00.947Z,50.849529
2022-08-30T09:43:00.937Z,50.849518
2022-08-30T09:44:00.926Z,50.849525
2022-08-30T09:45:00.937Z,50.849533
2022-08-30T09:46:01.007Z,50.849514
2022-08-30T09:47:00.914Z,50.849514
2022-08-30T09:48:00.895Z,50.849514
2022-08-30T09:49:00.895Z,50.849499
2022-08-30T09:50:00.876Z,50.849499
2022-08-30T09:51:00.884Z,50.849495
2022-08-30T09:52:00.910Z,50.849506
2022-08-30T09:53:00.879Z,50.849514
2022-08-30T09:54:17.037Z,50.849522
2022-08-30T09:55:01.839Z,50.849525
2022-08-30T09:56:00.832Z,50.849510
2022-08-30T09:57:00.831Z,50.849499
2022-08-30T09:58:00.840Z,50.849503
2022-08-30T09:59:00.813Z,50.849522
2022-08-30T10:00:00.804Z,50.849503
2022-08-30T10:01:00.829Z,50.849499
2022-08-30T10:02:00.784Z,50.849495
2022-08-30T10:03:00.782Z,50.849499
2022-08-30T10:04:00.795Z,50.849476
2022-08-30T10:05:00.773Z,50.849491
2022-08-30T10:06:00.753Z,50.849495
2022-08-30T10:07:00.743Z,50.849476
2022-08-30T10:08:00.737Z,50.849461
2022-08-30T10:09:00.747Z,50.849464
2022-08-30T10:10:00.743Z,50.849476
2022-08-30T10:11:00.720Z,50.849457
2022-08-30T10:12:00.709Z,50.849445
2022-08-30T10:13:00.701Z,50.849445
2022-08-30T10:14:00.696Z,50.849457
2022-08-30T10:15:00.705Z,50.849468
2022-08-30T10:16:00.687Z,50.849480
2022-08-30T10:17:00.661Z,50.849480
2022-08-30T10:18:00.655Z,50.849464
2022-08-30T10:19:00.647Z,50.849472
2022-08-30T10:20:00.665Z,50.849476
2022-08-30T10:21:00.631Z,50.849480
2022-08-30T10:22:00.620Z,50.849491
2022-08-30T10:23:00.631Z,50.849495
2022-08-30T10:24:00.605Z,50.849503
2022-08-30T10:25:00.599Z,50.849495
2022-08-30T10:26:00.591Z,50.849525
2022-08-30T10:27:00.580Z,50.849503
2022-08-30T10:28:00.686Z,50.849449
2022-08-30T10:29:00.566Z,50.849457
2022-08-30T10:30:00.558Z,50.849487
2022-08-30T10:31:00.549Z,50.849480
2022-08-30T10:32:00.548Z,50.849491
2022-08-30T10:33:00.551Z,50.849525
2022-08-30T10:34:00.517Z,50.849522
2022-08-30T10:35:00.511Z,50.849506
2022-08-30T10:36:00.509Z,50.849491
2022-08-30T10:37:00.493Z,50.849506
2022-08-30T10:38:00.536Z,50.849525
2022-08-30T10:39:00.509Z,50.849480
2022-08-30T10:40:00.525Z,50.849472
2022-08-30T10:41:00.489Z,50.849480
2022-08-30T10:42:00.500Z,50.849518
2022-08-30T10:43:00.453Z,50.849483
2022-08-30T10:44:00.443Z,50.849491
2022-08-30T10:45:00.459Z,50.849476
2022-08-30T10:46:00.437Z,50.849480
2022-08-30T10:47:00.426Z,50.849506
2022-08-30T10:48:00.414Z,50.849491
2022-08-30T10:49:00.434Z,50.849476
2022-08-30T10:50:00.397Z,50.849499
2022-08-30T10:51:00.385Z,50.849468
2022-08-30T10:52:00.389Z,50.849464
2022-08-30T10:53:00.375Z,50.849491
2022-08-30T10:54:00.417Z,50.849480
2022-08-30T10:55:00.591Z,50.849464
2022-08-30T10:56:00.346Z,50.849483
2022-08-30T10:57:00.446Z,50.849499
2022-08-30T10:58:00.334Z,50.849503
2022-08-30T10:59:00.321Z,50.849499
2022-08-30T11:00:00.346Z,50.849472
2022-08-30T11:01:00.345Z,50.849518
2022-08-30T11:02:00.307Z,50.849495
2022-08-30T11:03:00.292Z,50.849514
2022-08-30T11:04:00.286Z,50.849518
2022-08-30T11:05:00.746Z,50.849491
2022-08-30T11:06:00.296Z,50.849495
2022-08-30T11:07:00.301Z,50.849518
2022-08-30T11:08:00.253Z,50.849514
2022-08-30T11:09:00.262Z,50.849510
2022-08-30T11:10:00.240Z,50.849506
2022-08-30T11:11:00.229Z,50.849506
2022-08-30T11:12:00.288Z,50.849533
2022-08-30T11:13:00.687Z,50.849522
2022-08-30T11:14:03.604Z,50.849495
2022-08-30T11:15:01.191Z,50.849518
2022-08-30T11:16:00.832Z,50.849522
2022-08-30T11:17:00.186Z,50.849472
2022-08-30T11:18:00.179Z,50.849472
2022-08-30T11:19:00.164Z,50.849499
2022-08-30T11:20:00.178Z,50.849495
2022-08-30T11:21:00.170Z,50.849503
2022-08-30T11:22:00.144Z,50.849472
2022-08-30T11:23:00.163Z,50.849464
2022-08-30T11:24:00.120Z,50.849472
2022-08-30T11:25:00.136Z,50.849476
2022-08-30T11:26:00.136Z,50.849483
2022-08-30T11:27:00.159Z,50.849483
2022-08-30T11:28:00.106Z,50.849480
2022-08-30T11:29:00.162Z,50.849487